createdAt,value
2022-08-03T00:00:17.553Z,1.70
2022-08-03T00:02:50.265Z,1.77
2022-08-03T00:05:22.885Z,1.80
2022-08-03T00:07:55.712Z,1.95
2022-08-03T00:10:28.637Z,1.58
2022-08-03T00:13:01.154Z,1.58
2022-08-03T00:15:33.873Z,1.70
2022-08-03T00:18:06.715Z,1.60
2022-08-03T00:20:39.277Z,1.70
2022-08-03T00:23:12.009Z,1.70
2022-08-03T00:25:44.752Z,1.65
2022-08-03T00:28:17.706Z,1.70
2022-08-03T00:30:51.039Z,1.70
2022-08-03T00:33:24.798Z,1.40
2022-08-03T00:36:00.236Z,1.50
2022-08-03T00:38:32.754Z,1.80
2022-08-03T00:41:05.232Z,1.70
2022-08-03T00:43:37.875Z,1.60
2022-08-03T00:46:10.466Z,1.50
2022-08-03T00:48:43.209Z,1.65
2022-08-03T00:51:16.202Z,1.50
2022-08-03T00:53:49.800Z,1.77
2022-08-03T00:56:22.390Z,1.70
2022-08-03T00:58:59.131Z,1.85
2022-08-03T01:01:32.610Z,1.55
2022-08-03T01:04:05.628Z,1.45
2022-08-03T01:06:58.599Z,1.60
2022-08-03T01:09:58.757Z,1.35
2022-08-03T01:12:49.529Z,1.52
2022-08-03T01:15:25.069Z,1.45
2022-08-03T01:18:10.907Z,1.70
2022-08-03T01:20:47.962Z,1.60
2022-08-03T01:23:29.727Z,1.52
2022-08-03T01:26:24.584Z,1.55
2022-08-03T01:29:08.056Z,1.55
2022-08-03T01:32:58.714Z,1.48
2022-08-03T01:35:00.934Z,1.70
2022-08-03T01:38:00.999Z,1.55
2022-08-03T01:40:37.035Z,1.45
2022-08-03T01:43:12.722Z,1.52
2022-08-03T01:45:48.746Z,1.38
2022-08-03T01:48:22.808Z,1.40
2022-08-03T01:50:57.545Z,1.48
2022-08-03T01:53:33.525Z,1.20
2022-08-03T01:56:08.104Z,1.40
2022-08-03T01:58:43.008Z,1.50
2022-08-03T02:01:17.207Z,1.45
2022-08-03T02:04:00.573Z,1.58
2022-08-03T02:06:59.909Z,1.30
2022-08-03T02:09:31.246Z,1.60
2022-08-03T02:12:07.769Z,1.42
2022-08-03T02:14:43.692Z,1.60
2022-08-03T02:17:17.082Z,1.38
2022-08-03T02:19:51.133Z,1.70
2022-08-03T02:22:25.727Z,1.40
2022-08-03T02:24:58.864Z,1.50
2022-08-03T02:27:39.445Z,1.55
2022-08-03T02:30:16.968Z,1.77
2022-08-03T02:32:56.317Z,1.60
2022-08-03T02:35:31.462Z,1.55
2022-08-03T02:38:08.128Z,1.50
2022-08-03T02:40:43.647Z,1.70
2022-08-03T02:43:20.734Z,1.60
2022-08-03T02:45:54.858Z,1.60
2022-08-03T02:48:31.107Z,1.50
2022-08-03T02:51:05.372Z,1.73
2022-08-03T02:53:39.434Z,1.65
2022-08-03T02:56:13.754Z,1.63
2022-08-03T02:58:50.313Z,1.55
2022-08-03T03:01:25.228Z,1.88
2022-08-03T03:03:59.538Z,1.40
2022-08-03T03:06:35.447Z,1.63
2022-08-03T03:09:09.769Z,1.75
2022-08-03T03:11:44.657Z,1.42
2022-08-03T03:14:33.144Z,1.50
2022-08-03T03:17:15.529Z,1.63
2022-08-03T03:19:50.074Z,1.52
2022-08-03T03:22:24.985Z,1.60
2022-08-03T03:24:58.296Z,1.77
2022-08-03T03:27:31.724Z,1.88
2022-08-03T03:30:05.606Z,1.67
2022-08-03T03:32:40.207Z,1.70
2022-08-03T03:35:15.645Z,1.90
2022-08-03T03:40:21.454Z,1.90
2022-08-03T03:42:54.727Z,1.98
2022-08-03T03:45:28.723Z,1.58
2022-08-03T03:48:05.790Z,1.50
2022-08-03T03:50:42.095Z,1.70
2022-08-03T03:53:14.975Z,1.67
2022-08-03T04:04:46.831Z,1.42
2022-08-03T04:10:59.572Z,1.60
2022-08-03T04:14:01.985Z,2.25
2022-08-03T04:16:43.615Z,2.10
2022-08-03T04:19:32.847Z,1.80
2022-08-03T04:22:32.917Z,1.90
2022-08-03T04:25:18.593Z,1.90
2022-08-03T04:28:09.735Z,1.85
2022-08-03T04:31:40.244Z,1.90
2022-08-03T04:34:13.440Z,1.80
2022-08-03T04:36:50.584Z,2.10
2022-08-03T04:39:43.667Z,2.00
2022-08-03T04:42:42.450Z,1.83
2022-08-03T04:46:39.994Z,1.88
2022-08-03T04:49:44.848Z,1.80
2022-08-03T04:52:19.667Z,1.70
2022-08-03T04:54:58.092Z,1.80
2022-08-03T04:57:54.125Z,1.77
2022-08-03T05:00:55.035Z,1.80
2022-08-03T05:03:48.127Z,1.90
2022-08-03T05:06:48.104Z,1.67
2022-08-03T05:09:50.768Z,1.75
2022-08-03T05:12:58.143Z,1.80
2022-08-03T05:28:51.273Z,2.13
2022-08-03T05:31:24.455Z,2.30
2022-08-03T05:33:57.915Z,2.00
2022-08-03T05:36:30.699Z,1.92
2022-08-03T05:39:28.278Z,2.42
2022-08-03T05:42:22.864Z,2.35
2022-08-03T05:44:59.921Z,2.05
2022-08-03T05:47:38.663Z,2.00
2022-08-03T05:51:01.543Z,1.80
2022-08-03T05:53:35.550Z,2.05
2022-08-03T05:57:24.539Z,2.10
2022-08-03T06:00:22.361Z,2.42
2022-08-03T06:02:59.335Z,1.90
2022-08-03T06:06:01.989Z,1.92
2022-08-03T06:09:00.187Z,2.50
2022-08-03T06:11:41.890Z,2.33
2022-08-03T06:15:05.715Z,2.00
2022-08-03T06:18:06.335Z,2.08
2022-08-03T06:20:55.315Z,2.08
2022-08-03T06:23:55.611Z,1.83
2022-08-03T06:26:29.225Z,1.98
2022-08-03T06:30:01.871Z,1.80
2022-08-03T06:32:35.336Z,1.70
2022-08-03T06:35:30.154Z,2.05
2022-08-03T06:39:28.375Z,1.63
2022-08-03T06:42:01.223Z,1.77
2022-08-03T06:44:33.867Z,1.60
2022-08-03T06:47:06.771Z,1.52
2022-08-03T06:49:41.453Z,1.90
2022-08-03T06:52:14.212Z,1.77
2022-08-03T06:55:13.267Z,2.85
2022-08-03T06:57:45.745Z,2.75
2022-08-03T07:00:19.293Z,2.75
2022-08-03T07:02:56.129Z,3.25
2022-08-03T07:05:33.763Z,3.92
2022-08-03T07:08:06.334Z,2.10
2022-08-03T07:10:39.213Z,1.60
2022-08-03T07:13:12.544Z,1.67
2022-08-03T07:15:55.643Z,1.75
2022-08-03T07:18:29.916Z,1.98
2022-08-03T07:21:03.065Z,1.55
2022-08-03T07:23:35.786Z,2.30
2022-08-03T07:26:08.464Z,2.13
2022-08-03T07:28:41.198Z,1.85
2022-08-03T07:31:13.851Z,1.88
2022-08-03T07:33:46.706Z,2.40
2022-08-03T07:36:19.342Z,2.50
2022-08-03T07:38:51.973Z,2.30
2022-08-03T07:41:25.040Z,2.40
2022-08-03T07:43:58.019Z,2.42
2022-08-03T07:46:30.826Z,2.25
2022-08-03T07:49:03.757Z,2.20
2022-08-03T07:51:36.712Z,2.10
2022-08-03T07:54:10.618Z,2.40
2022-08-03T07:56:43.337Z,2.50
2022-08-03T07:59:16.300Z,2.60
2022-08-03T08:01:48.989Z,2.58
2022-08-03T08:04:22.041Z,2.30
2022-08-03T08:06:54.633Z,2.15
2022-08-03T08:09:27.204Z,2.08
2022-08-03T08:12:02.223Z,2.20
2022-08-03T08:14:36.135Z,1.90
2022-08-03T08:17:08.763Z,2.00
2022-08-03T08:19:49.012Z,2.25
2022-08-03T08:22:30.500Z,2.20
2022-08-03T08:25:03.901Z,2.10
2022-08-03T08:28:22.437Z,2.35
2022-08-03T08:30:38.944Z,2.00
2022-08-03T08:33:22.762Z,2.00
2022-08-03T08:35:56.874Z,2.15
2022-08-03T08:38:36.031Z,2.25
2022-08-03T08:41:11.828Z,2.35
2022-08-03T08:43:44.706Z,2.30
2022-08-03T08:46:23.949Z,2.25
2022-08-03T08:48:58.774Z,2.05
2022-08-03T08:51:59.144Z,2.22
2022-08-03T08:54:36.024Z,2.17
2022-08-03T08:57:26.788Z,1.92
2022-08-03T09:00:04.051Z,2.40
2022-08-03T09:02:37.882Z,2.30
2022-08-03T09:05:16.304Z,2.00
2022-08-03T09:07:50.644Z,2.05
2022-08-03T09:10:24.050Z,2.20
2022-08-03T09:12:57.369Z,2.25
2022-08-03T09:15:32.102Z,2.15
2022-08-03T09:18:06.181Z,2.35
2022-08-03T09:20:39.568Z,1.90
2022-08-03T09:23:59.711Z,2.20
2022-08-03T09:26:06.335Z,2.10
2022-08-03T09:28:59.761Z,1.90
2022-08-03T09:31:35.280Z,2.20
2022-08-03T09:34:11.257Z,1.95
2022-08-03T09:36:49.194Z,1.88
2022-08-03T09:39:40.305Z,2.00
2022-08-03T09:42:18.521Z,2.20
2022-08-03T09:44:52.942Z,2.00
2022-08-03T09:47:32.091Z,2.35
2022-08-03T09:50:07.367Z,1.90
2022-08-03T09:56:34.812Z,1.70
2022-08-03T09:58:21.016Z,1.87
2022-08-03T10:01:06.213Z,3.15
2022-08-03T10:04:02.779Z,2.63
2022-08-03T10:06:35.208Z,1.63
2022-08-03T10:09:08.365Z,2.13
2022-08-03T10:11:49.978Z,1.88
2022-08-03T10:14:48.467Z,1.95
2022-08-03T10:17:22.796Z,1.90
2022-08-03T10:19:55.737Z,1.70
2022-08-03T10:22:31.023Z,1.65
2022-08-03T10:25:14.958Z,1.90
2022-08-03T10:28:15.437Z,1.60
2022-08-03T10:44:06.965Z,1.60
2022-08-03T10:47:05.939Z,1.67
2022-08-03T10:51:00.099Z,1.50
2022-08-03T10:54:48.797Z,1.27
2022-08-03T11:07:07.943Z,1.40
2022-08-03T11:14:13.590Z,1.42
2022-08-03T11:17:46.505Z,1.35
2022-08-03T11:21:17.426Z,1.33
2022-08-03T11:28:43.975Z,1.40
2022-08-03T11:31:50.757Z,1.38
2022-08-03T11:35:13.065Z,1.20
2022-08-03T11:38:11.814Z,1.60
2022-08-03T11:49:09.497Z,1.30
2022-08-03T11:51:45.942Z,1.38
2022-08-03T11:54:21.051Z,1.40
2022-08-03T11:59:01.960Z,1.20
2022-08-03T12:06:05.622Z,1.40
2022-08-03T12:27:05.031Z,1.52
2022-08-03T12:29:43.933Z,1.27
2022-08-03T12:33:26.806Z,1.00
2022-08-03T12:36:10.094Z,1.20
2022-08-03T12:38:57.391Z,1.13
2022-08-03T12:45:37.865Z,1.30
2022-08-03T12:48:12.748Z,1.20
2022-08-03T12:50:53.776Z,1.40
2022-08-03T12:53:30.932Z,1.73
2022-08-03T12:56:28.866Z,1.38
2022-08-03T12:59:32.358Z,1.40
2022-08-03T13:02:15.031Z,1.67
2022-08-03T13:04:52.055Z,1.63
2022-08-03T13:07:25.241Z,1.30
2022-08-03T13:14:26.280Z,1.10
2022-08-03T13:16:59.221Z,1.40
2022-08-03T13:19:35.311Z,1.20
2022-08-03T13:22:15.967Z,1.10
2022-08-03T13:24:53.089Z,1.40
2022-08-03T13:28:04.148Z,1.30
2022-08-03T13:30:30.340Z,1.90
2022-08-03T13:33:04.701Z,1.13
2022-08-03T13:35:38.540Z,1.17
2022-08-03T13:38:11.924Z,1.00
2022-08-03T13:40:46.141Z,1.00
2022-08-03T13:43:23.368Z,1.25
2022-08-03T13:45:57.856Z,1.30
2022-08-03T13:48:36.694Z,1.10
2022-08-03T13:51:22.187Z,1.20
2022-08-03T13:53:56.289Z,1.20
2022-08-03T13:56:31.047Z,1.17
2022-08-03T13:59:04.239Z,1.38
2022-08-03T14:01:53.951Z,1.27
2022-08-03T14:04:28.306Z,1.17
2022-08-03T14:07:02.846Z,1.40
2022-08-03T14:09:36.103Z,1.15
2022-08-03T14:12:09.165Z,1.08
2022-08-03T14:14:42.355Z,1.38
2022-08-03T14:17:16.504Z,1.10
2022-08-03T14:19:53.015Z,1.20
2022-08-03T14:22:27.833Z,1.20
2022-08-03T14:25:01.192Z,1.05
2022-08-03T14:27:35.587Z,1.30
2022-08-03T14:30:09.416Z,1.45
2022-08-03T14:32:42.631Z,1.23
2022-08-03T14:35:15.743Z,1.20
2022-08-03T14:37:48.723Z,1.00
2022-08-03T14:40:21.992Z,1.20
2022-08-03T14:42:54.824Z,1.20
2022-08-03T14:45:27.835Z,1.17
2022-08-03T14:50:32.072Z,0.90
2022-08-03T14:50:55.662Z,1.30
2022-08-03T14:53:30.091Z,1.40
2022-08-03T14:56:06.502Z,1.40
2022-08-03T14:58:42.966Z,1.30
2022-08-03T15:02:03.220Z,1.17
2022-08-03T15:04:08.804Z,1.27
2022-08-03T15:06:41.825Z,1.10
2022-08-03T15:09:24.305Z,1.17
2022-08-03T15:11:57.579Z,1.30
2022-08-03T15:14:33.407Z,1.20
2022-08-03T15:17:08.883Z,1.30
2022-08-03T15:20:05.514Z,1.38
2022-08-03T15:22:36.173Z,1.02
2022-08-03T15:26:28.086Z,0.90
2022-08-03T15:28:04.535Z,1.40
2022-08-03T15:30:39.042Z,1.20
2022-08-03T15:33:12.008Z,1.17
2022-08-03T15:35:46.801Z,0.95
